< < Back
Terminal Aerodrome Forecast


Current Version              Previous Versions:   1  2  3  4  5  6  7  8  9  

Terminal Aerodrome Forecast

823
FTUS42 KCHS 252320
TAFCHS
TAF
KCHS 252320Z 2600/2624 18009KT P6SM FEW250
     FM260300 21005KT P6SM FEW025
     FM261800 19010KT P6SM SCT045=

Latest METAR

640
SAUS80 KWBC 260000
MTRCHS
METAR KCHS 252356Z 20012KT 10SM FEW250 29/22 A3002 RMK AO2 SLP165
T02940222 10339 20294 53001


USA.gov is the U.S. government's official web portal to all federal, state and local government web resources and services.